createdAt,value
2017-09-03T00:00:21.235Z,5.50
2017-09-03T00:02:49.592Z,7.13
2017-09-03T00:05:18.165Z,6.03
2017-09-03T00:07:46.493Z,6.40
2017-09-03T00:10:14.820Z,6.23
2017-09-03T00:12:43.365Z,7.03
2017-09-03T00:15:11.748Z,6.07
2017-09-03T00:17:40.129Z,5.40
2017-09-03T00:20:08.848Z,6.20
2017-09-03T00:22:37.225Z,6.47
2017-09-03T00:25:05.544Z,6.57
2017-09-03T00:27:35.167Z,5.70
2017-09-03T00:30:03.537Z,6.23
2017-09-03T00:32:31.971Z,6.12
2017-09-03T00:35:00.533Z,6.20
2017-09-03T00:37:28.891Z,6.93
2017-09-03T00:39:57.203Z,6.90
2017-09-03T00:42:25.800Z,6.53
2017-09-03T00:44:54.202Z,7.43
2017-09-03T00:47:22.582Z,7.85
2017-09-03T00:49:52.978Z,7.60
2017-09-03T00:52:22.106Z,7.50
2017-09-03T00:54:50.453Z,7.80
2017-09-03T00:57:18.978Z,7.22
2017-09-03T00:59:47.366Z,7.32
2017-09-03T01:02:15.768Z,7.78
2017-09-03T01:04:44.327Z,7.97
2017-09-03T01:07:12.689Z,7.10
2017-09-03T01:09:41.383Z,7.10
2017-09-03T01:12:10.029Z,7.82
2017-09-03T01:14:38.410Z,7.10
2017-09-03T01:17:06.733Z,7.12
2017-09-03T01:19:35.399Z,7.32
2017-09-03T01:22:04.721Z,7.57
2017-09-03T01:24:33.102Z,8.82
2017-09-03T01:27:01.560Z,8.57
2017-09-03T01:29:29.960Z,8.75
2017-09-03T01:31:58.444Z,8.75
2017-09-03T01:34:27.238Z,8.95
2017-09-03T01:36:55.708Z,8.85
2017-09-03T01:39:24.025Z,8.13
2017-09-03T01:41:52.749Z,7.90
2017-09-03T01:44:21.095Z,7.75
2017-09-03T01:46:49.445Z,7.28
2017-09-03T01:49:18.116Z,8.05
2017-09-03T01:51:46.473Z,8.38
2017-09-03T01:54:14.842Z,9.75
2017-09-03T01:56:43.425Z,9.30
2017-09-03T01:59:11.764Z,8.95
2017-09-03T02:01:40.134Z,7.85
2017-09-03T02:04:08.725Z,8.45
2017-09-03T02:06:37.059Z,8.15
2017-09-03T02:09:05.417Z,7.57
2017-09-03T02:11:34.004Z,9.05
2017-09-03T02:14:02.349Z,9.35
2017-09-03T02:16:30.713Z,9.23
2017-09-03T02:18:59.329Z,9.85
2017-09-03T02:21:27.861Z,10.02
2017-09-03T02:23:56.391Z,10.50
2017-09-03T02:26:24.955Z,9.07
2017-09-03T02:28:53.302Z,8.73
2017-09-03T02:31:21.619Z,8.23
2017-09-03T02:33:50.125Z,9.02
2017-09-03T02:36:19.219Z,9.65
2017-09-03T02:38:47.626Z,9.65
2017-09-03T02:41:16.008Z,7.95
2017-09-03T02:43:44.355Z,8.30
2017-09-03T02:46:13.605Z,9.43
2017-09-03T02:48:42.205Z,8.90
2017-09-03T02:51:10.546Z,8.82
2017-09-03T02:53:38.950Z,9.52
2017-09-03T02:56:07.531Z,9.02
2017-09-03T02:58:35.892Z,9.68
2017-09-03T03:01:04.296Z,9.05
2017-09-03T03:03:32.817Z,9.43
2017-09-03T03:06:01.159Z,8.48
2017-09-03T03:08:29.517Z,9.55
2017-09-03T03:10:58.244Z,8.88
2017-09-03T03:13:26.622Z,8.20
2017-09-03T03:15:54.989Z,8.70
2017-09-03T03:18:23.329Z,8.50
2017-09-03T03:20:51.637Z,9.57
2017-09-03T03:23:19.985Z,8.25
2017-09-03T03:25:49.304Z,7.68
2017-09-03T03:28:17.631Z,8.85
2017-09-03T03:30:46.734Z,8.82
2017-09-03T03:33:15.240Z,9.40
2017-09-03T03:35:43.562Z,9.52
2017-09-03T03:38:11.902Z,9.25
2017-09-03T03:40:41.506Z,8.48
2017-09-03T03:43:09.819Z,9.50
2017-09-03T03:45:38.156Z,9.35
2017-09-03T03:48:06.538Z,8.80
2017-09-03T03:50:34.853Z,8.48
2017-09-03T03:53:03.207Z,9.43
2017-09-03T03:55:31.582Z,8.60
2017-09-03T03:58:00.159Z,8.80
2017-09-03T04:00:28.533Z,8.45
2017-09-03T04:02:57.096Z,8.45
2017-09-03T04:05:25.425Z,7.95
2017-09-03T04:07:53.751Z,8.82
2017-09-03T04:10:23.257Z,7.97
2017-09-03T04:12:51.587Z,7.87
2017-09-03T04:15:19.914Z,8.07
2017-09-03T04:17:49.451Z,7.70
2017-09-03T04:20:17.794Z,8.35
2017-09-03T04:22:46.175Z,8.23
2017-09-03T04:25:14.535Z,9.60
2017-09-03T04:27:42.935Z,8.23
2017-09-03T04:30:11.261Z,7.00
2017-09-03T04:32:39.644Z,8.05
2017-09-03T04:35:07.973Z,9.52
2017-09-03T04:37:36.326Z,8.65
2017-09-03T04:40:05.062Z,10.15
2017-09-03T04:42:33.465Z,10.13
2017-09-03T04:45:01.820Z,10.18
2017-09-03T04:47:30.526Z,9.63
2017-09-03T04:49:58.880Z,8.40
2017-09-03T04:52:27.415Z,9.30
2017-09-03T04:54:55.999Z,9.40
2017-09-03T04:57:25.404Z,9.75
2017-09-03T04:59:53.946Z,10.50
2017-09-03T05:02:22.521Z,8.55
2017-09-03T05:04:50.865Z,9.95
2017-09-03T05:07:19.186Z,11.18
2017-09-03T05:09:48.225Z,11.40
2017-09-03T05:12:16.550Z,12.27
2017-09-03T05:14:44.880Z,10.27
2017-09-03T05:17:14.211Z,9.02
2017-09-03T05:19:42.602Z,9.23
2017-09-03T05:22:10.968Z,9.82
2017-09-03T05:24:39.585Z,11.85
2017-09-03T05:27:07.994Z,10.90
2017-09-03T05:29:36.361Z,11.60
2017-09-03T05:32:05.060Z,10.57
2017-09-03T05:34:33.377Z,10.52
2017-09-03T05:37:01.779Z,9.40
2017-09-03T05:39:30.194Z,11.70
2017-09-03T05:41:58.712Z,9.60
2017-09-03T05:44:27.228Z,9.27
2017-09-03T05:46:55.984Z,9.48
2017-09-03T05:49:24.362Z,9.77
2017-09-03T05:51:52.692Z,9.55
2017-09-03T05:54:21.249Z,9.35
2017-09-03T05:56:49.584Z,9.73
2017-09-03T05:59:17.931Z,9.18
2017-09-03T06:01:46.563Z,9.23
2017-09-03T06:04:14.897Z,9.00
2017-09-03T06:06:43.222Z,9.70
2017-09-03T06:09:11.808Z,9.18
2017-09-03T06:11:40.281Z,9.45
2017-09-03T06:14:08.625Z,9.80
2017-09-03T06:16:37.016Z,7.47
2017-09-03T06:19:05.352Z,8.73
2017-09-03T06:21:33.719Z,8.97
2017-09-03T06:24:02.426Z,8.07
2017-09-03T06:26:31.764Z,7.67
2017-09-03T06:29:00.166Z,7.53
2017-09-03T06:31:28.750Z,8.57
2017-09-03T06:33:57.106Z,8.10
2017-09-03T06:36:25.454Z,7.10
2017-09-03T06:38:54.250Z,7.33
2017-09-03T06:41:22.600Z,7.43
2017-09-03T06:43:50.923Z,7.50
2017-09-03T06:46:19.340Z,7.20
2017-09-03T06:48:47.687Z,7.43
2017-09-03T06:51:16.070Z,6.63
2017-09-03T06:53:44.487Z,6.63
2017-09-03T06:56:13.773Z,6.67
2017-09-03T06:58:42.093Z,5.97
2017-09-03T07:01:10.759Z,6.40
2017-09-03T07:03:39.091Z,5.67
2017-09-03T07:06:07.622Z,5.80
2017-09-03T07:08:37.049Z,6.40
2017-09-03T07:11:05.403Z,5.87
2017-09-03T07:13:33.761Z,5.17
2017-09-03T07:16:02.497Z,5.30
2017-09-03T07:18:30.974Z,4.20
2017-09-03T07:20:59.543Z,3.83
2017-09-03T07:23:28.936Z,3.53
2017-09-03T07:25:57.366Z,2.80
2017-09-03T07:28:25.810Z,2.43
2017-09-03T07:30:54.296Z,3.20
2017-09-03T07:33:22.637Z,3.13
2017-09-03T07:35:50.971Z,2.83
2017-09-03T07:38:19.639Z,2.17
2017-09-03T07:40:48.036Z,2.63
2017-09-03T07:43:16.362Z,2.27
2017-09-03T07:45:44.930Z,2.57
2017-09-03T07:48:13.274Z,1.80
2017-09-03T07:50:41.603Z,2.30
2017-09-03T07:53:10.122Z,3.00
2017-09-03T07:55:38.450Z,2.70
2017-09-03T07:58:06.789Z,1.53
2017-09-03T08:00:35.321Z,2.00
2017-09-03T08:03:03.692Z,1.93
2017-09-03T08:05:32.040Z,2.53
2017-09-03T08:08:00.656Z,1.93
2017-09-03T08:10:29.169Z,2.43
2017-09-03T08:12:57.568Z,1.80
2017-09-03T08:15:26.675Z,1.70
2017-09-03T08:17:55.049Z,2.13
2017-09-03T08:20:23.367Z,2.50
2017-09-03T08:22:52.771Z,1.80
2017-09-03T08:25:21.085Z,1.80
2017-09-03T08:27:49.476Z,1.60
2017-09-03T08:30:18.160Z,1.43
2017-09-03T08:32:46.490Z,2.83
2017-09-03T08:35:14.921Z,2.80
2017-09-03T08:37:44.628Z,2.57
2017-09-03T08:40:12.994Z,2.17
2017-09-03T08:42:41.831Z,1.73
2017-09-03T08:45:10.579Z,2.20
2017-09-03T08:47:40.845Z,2.43
2017-09-03T08:50:10.061Z,2.27
2017-09-03T08:52:38.780Z,2.00
2017-09-03T08:55:07.122Z,2.27
2017-09-03T08:57:35.438Z,1.90
2017-09-03T09:00:04.073Z,1.40
2017-09-03T09:02:32.599Z,1.90
2017-09-03T09:05:01.059Z,1.90
2017-09-03T09:07:29.917Z,1.70
2017-09-03T09:09:58.499Z,2.40
2017-09-03T09:12:26.977Z,2.33
2017-09-03T09:14:55.667Z,1.83
2017-09-03T09:17:24.011Z,2.13
2017-09-03T09:19:52.381Z,1.63
2017-09-03T09:22:23.757Z,1.57
2017-09-03T09:24:53.013Z,1.37
2017-09-03T09:27:21.382Z,1.43
2017-09-03T09:29:50.104Z,1.27
2017-09-03T09:32:18.445Z,1.83
2017-09-03T09:34:46.784Z,1.63
2017-09-03T09:37:15.320Z,2.03
2017-09-03T09:39:44.274Z,2.33
2017-09-03T09:42:12.772Z,1.80
2017-09-03T09:44:41.207Z,2.30
2017-09-03T09:47:10.297Z,2.57
2017-09-03T09:49:38.905Z,2.53
2017-09-03T09:52:07.537Z,1.80
2017-09-03T09:54:36.297Z,1.70
2017-09-03T09:57:04.784Z,1.73
2017-09-03T09:59:33.455Z,1.87
2017-09-03T10:02:01.932Z,1.60
2017-09-03T10:04:30.316Z,1.50
2017-09-03T10:06:59.007Z,2.70
2017-09-03T10:09:27.903Z,2.37
2017-09-03T10:11:56.735Z,1.70
2017-09-03T10:14:25.650Z,2.13
2017-09-03T10:16:55.467Z,2.97
2017-09-03T10:19:23.940Z,1.90
2017-09-03T10:21:52.625Z,2.10
2017-09-03T10:24:21.622Z,1.77
2017-09-03T10:26:49.996Z,2.07
2017-09-03T10:29:18.467Z,1.30
2017-09-03T10:31:46.856Z,1.83
2017-09-03T10:34:15.179Z,1.93
2017-09-03T10:36:43.736Z,1.93
2017-09-03T10:39:12.209Z,2.90
2017-09-03T10:41:41.073Z,1.50
2017-09-03T10:44:09.629Z,1.80
2017-09-03T10:46:37.989Z,1.67
2017-09-03T10:49:06.367Z,1.90
2017-09-03T10:51:35.573Z,3.03
2017-09-03T10:54:04.050Z,2.27
2017-09-03T10:56:32.458Z,1.60
2017-09-03T10:59:01.335Z,1.80
2017-09-03T11:01:29.722Z,1.60
2017-09-03T11:03:58.106Z,1.93
2017-09-03T11:06:26.755Z,1.37
2017-09-03T11:08:55.097Z,1.33
2017-09-03T11:11:23.517Z,1.83
2017-09-03T11:13:52.057Z,1.70
2017-09-03T11:16:20.367Z,1.77
2017-09-03T11:18:48.678Z,1.80
2017-09-03T11:21:17.034Z,1.83
2017-09-03T11:23:45.373Z,1.90
2017-09-03T11:26:13.748Z,1.53
2017-09-03T11:28:42.287Z,1.93
2017-09-03T11:31:10.912Z,1.70
2017-09-03T11:33:40.416Z,1.70
2017-09-03T11:36:09.077Z,1.77
2017-09-03T11:38:38.777Z,2.00
2017-09-03T11:41:07.524Z,1.60
2017-09-03T11:43:35.912Z,2.10
2017-09-03T11:46:04.257Z,1.80
2017-09-03T11:48:32.607Z,2.17
2017-09-03T11:51:01.278Z,1.80
2017-09-03T11:55:47.591Z,3.57
2017-09-03T11:58:16.205Z,4.00
2017-09-03T12:00:44.525Z,4.13
2017-09-03T12:03:12.841Z,3.87
2017-09-03T12:05:41.597Z,4.50
2017-09-03T12:13:08.421Z,4.60
2017-09-03T12:20:39.587Z,1.97
2017-09-03T12:23:08.693Z,1.97
2017-09-03T12:25:37.857Z,1.90
2017-09-03T12:28:08.366Z,2.77
2017-09-03T12:30:37.666Z,2.20
2017-09-03T12:33:06.811Z,2.20
2017-09-03T12:35:36.158Z,1.90
2017-09-03T12:38:05.266Z,2.13
2017-09-03T12:40:34.460Z,2.03
2017-09-03T12:43:03.660Z,2.00
2017-09-03T12:45:33.041Z,2.43
2017-09-03T12:48:02.290Z,2.03
2017-09-03T12:50:31.745Z,1.97
2017-09-03T12:53:01.566Z,1.80
2017-09-03T12:55:30.754Z,1.70
2017-09-03T12:58:00.275Z,1.30
2017-09-03T13:00:29.467Z,2.17
2017-09-03T13:02:58.651Z,2.10
2017-09-03T13:05:28.483Z,1.77
2017-09-03T13:07:59.682Z,1.70
2017-09-03T13:10:28.915Z,2.00
2017-09-03T13:13:00.194Z,4.50
2017-09-03T13:15:29.395Z,2.37
2017-09-03T13:17:59.414Z,2.03
2017-09-03T13:20:29.065Z,1.60
2017-09-03T13:22:59.797Z,1.80
2017-09-03T13:25:29.407Z,1.63
2017-09-03T13:27:59.746Z,1.50
2017-09-03T13:30:28.927Z,2.00
2017-09-03T13:32:58.231Z,1.77
2017-09-03T13:35:28.103Z,1.83
2017-09-03T13:37:57.841Z,1.70
2017-09-03T13:40:27.346Z,2.33
2017-09-03T13:42:57.440Z,2.17
2017-09-03T13:45:26.676Z,2.73
2017-09-03T13:47:56.163Z,1.77
2017-09-03T13:50:25.330Z,1.53
2017-09-03T13:52:54.532Z,2.13
2017-09-03T13:55:23.906Z,2.57
2017-09-03T13:57:53.161Z,2.27
2017-09-03T14:00:22.247Z,2.00
2017-09-03T14:02:51.544Z,2.13
2017-09-03T14:05:20.637Z,1.60
2017-09-03T14:07:49.821Z,2.27
2017-09-03T14:10:19.167Z,1.90
2017-09-03T14:12:48.290Z,1.90
2017-09-03T14:15:17.411Z,2.33
2017-09-03T14:17:46.849Z,1.93
2017-09-03T14:20:15.921Z,2.27
2017-09-03T14:22:45.046Z,2.90
2017-09-03T14:25:14.607Z,2.13
2017-09-03T14:27:43.702Z,2.60
2017-09-03T14:30:12.850Z,2.40
2017-09-03T14:32:42.305Z,2.40
2017-09-03T14:35:11.424Z,1.90
2017-09-03T14:37:40.656Z,2.20
2017-09-03T14:40:09.939Z,1.90
2017-09-03T14:42:39.102Z,2.07
2017-09-03T14:45:08.191Z,1.50
2017-09-03T14:47:37.625Z,2.23
2017-09-03T14:50:06.772Z,1.80
2017-09-03T14:52:35.994Z,2.53
2017-09-03T14:55:07.702Z,1.20
2017-09-03T14:57:37.571Z,1.90
2017-09-03T15:00:07.511Z,1.60
2017-09-03T15:02:36.906Z,1.60
2017-09-03T15:05:06.948Z,1.70
2017-09-03T15:07:36.175Z,1.70
2017-09-03T15:10:06.459Z,1.77
2017-09-03T15:12:35.611Z,1.60
2017-09-03T15:15:04.727Z,1.97
2017-09-03T15:17:34.062Z,1.40
2017-09-03T15:20:03.233Z,1.80
2017-09-03T15:22:32.456Z,1.60
2017-09-03T15:25:02.052Z,1.60
2017-09-03T15:27:31.203Z,1.40
2017-09-03T15:30:00.353Z,2.03
2017-09-03T15:32:29.620Z,1.37
2017-09-03T15:34:58.849Z,1.43
2017-09-03T15:37:28.008Z,1.50
2017-09-03T15:39:58.281Z,1.87
2017-09-03T15:42:27.635Z,1.73
2017-09-03T15:44:56.731Z,1.50
2017-09-03T15:47:26.101Z,1.70
2017-09-03T15:49:55.240Z,1.17
2017-09-03T15:52:25.790Z,1.80
2017-09-03T15:54:55.598Z,3.57
2017-09-03T15:57:24.726Z,2.17
2017-09-03T15:59:53.968Z,1.37
2017-09-03T16:02:23.257Z,1.07
2017-09-03T16:04:52.361Z,1.63
2017-09-03T16:07:21.518Z,1.50
2017-09-03T16:09:51.894Z,1.83
2017-09-03T16:12:21.991Z,1.50
2017-09-03T16:14:51.117Z,1.60
2017-09-03T16:17:21.334Z,1.27
2017-09-03T16:19:51.506Z,0.97
2017-09-03T16:22:20.636Z,1.53
2017-09-03T16:24:50.075Z,1.40
2017-09-03T16:27:19.245Z,1.20
2017-09-03T16:29:48.343Z,1.30
2017-09-03T16:32:17.845Z,1.10
2017-09-03T16:34:46.954Z,1.50
2017-09-03T16:37:16.108Z,1.37
2017-09-03T16:39:46.278Z,1.60
2017-09-03T16:42:16.370Z,1.10
2017-09-03T16:44:45.575Z,1.03
2017-09-03T16:47:14.741Z,1.20
2017-09-03T16:49:43.872Z,1.30
2017-09-03T16:52:13.072Z,2.27
2017-09-03T16:54:42.368Z,1.20
2017-09-03T16:57:11.479Z,2.03
2017-09-03T16:59:40.625Z,1.73
2017-09-03T17:02:09.866Z,1.07
2017-09-03T17:04:39.054Z,1.20
2017-09-03T17:07:09.110Z,1.47
2017-09-03T17:09:38.497Z,1.60
2017-09-03T17:12:07.695Z,1.67
2017-09-03T17:14:36.870Z,1.70
2017-09-03T17:17:06.200Z,1.80
2017-09-03T17:19:35.366Z,2.20
2017-09-03T17:22:04.777Z,2.30
2017-09-03T17:24:34.074Z,1.93
2017-09-03T17:27:05.233Z,1.80
2017-09-03T17:29:36.388Z,2.23
2017-09-03T17:32:06.205Z,1.77
2017-09-03T17:34:45.647Z,2.30
2017-09-03T17:37:21.262Z,2.00
2017-09-03T17:39:52.362Z,2.43
2017-09-03T17:42:24.281Z,2.17
2017-09-03T17:44:53.913Z,2.20
2017-09-03T17:47:23.082Z,2.33
2017-09-03T17:49:52.249Z,2.47
2017-09-03T17:52:21.699Z,2.07
2017-09-03T17:54:50.894Z,1.83
2017-09-03T17:57:20.061Z,1.70
2017-09-03T17:59:49.527Z,2.00
2017-09-03T18:02:18.671Z,2.37
2017-09-03T18:04:47.796Z,2.80
2017-09-03T18:07:16.961Z,3.10
2017-09-03T18:09:46.154Z,2.20
2017-09-03T18:12:15.579Z,2.10
2017-09-03T18:14:44.859Z,2.97
2017-09-03T18:17:15.080Z,2.57
2017-09-03T18:19:44.622Z,3.27
2017-09-03T18:22:15.756Z,2.60
2017-09-03T18:24:44.893Z,2.60
2017-09-03T18:27:14.028Z,3.83
2017-09-03T18:32:52.646Z,3.33
2017-09-03T18:35:21.954Z,3.53
2017-09-03T18:38:05.954Z,2.70
2017-09-03T18:40:47.074Z,2.93
2017-09-03T18:43:18.619Z,2.90
2017-09-03T18:45:58.755Z,2.90
2017-09-03T18:48:28.019Z,3.20
2017-09-03T18:51:03.884Z,3.23
2017-09-03T18:53:37.100Z,3.33
2017-09-03T18:56:06.861Z,2.87
2017-09-03T18:58:45.891Z,3.50
2017-09-03T19:01:15.090Z,3.53
2017-09-03T19:03:44.265Z,3.40
2017-09-03T19:06:15.003Z,3.30
2017-09-03T19:08:44.828Z,3.00
2017-09-03T19:11:14.775Z,3.27
2017-09-03T19:13:43.939Z,3.80
2017-09-03T19:16:13.256Z,3.73
2017-09-03T19:18:43.310Z,4.00
2017-09-03T19:21:12.564Z,3.60
2017-09-03T19:23:42.038Z,3.93
2017-09-03T19:26:11.177Z,4.83
2017-09-03T19:28:40.365Z,3.33
2017-09-03T19:31:09.706Z,4.20
2017-09-03T19:33:40.001Z,4.07
2017-09-03T19:36:09.124Z,4.70
2017-09-03T19:38:45.704Z,4.90
2017-09-03T19:41:14.885Z,6.00
2017-09-03T19:43:44.004Z,4.80
2017-09-03T19:46:13.157Z,6.13
2017-09-03T19:48:42.381Z,6.23
2017-09-03T19:51:11.486Z,6.70
2017-09-03T19:53:40.678Z,6.63
2017-09-03T19:56:09.966Z,6.40
2017-09-03T19:58:39.062Z,5.97
2017-09-03T20:01:08.509Z,5.47
2017-09-03T20:03:37.618Z,6.03
2017-09-03T20:06:07.170Z,5.50
2017-09-03T20:08:36.719Z,5.43
2017-09-03T20:11:05.873Z,5.47
2017-09-03T20:13:35.021Z,4.93
2017-09-03T20:16:04.510Z,5.67
2017-09-03T20:18:33.677Z,5.80
2017-09-03T20:21:02.943Z,6.50
2017-09-03T20:23:32.221Z,6.50
2017-09-03T20:26:01.513Z,5.47
2017-09-03T20:28:30.880Z,6.00
2017-09-03T20:31:00.183Z,6.10
2017-09-03T20:33:29.665Z,6.37
2017-09-03T20:35:58.961Z,6.00
2017-09-03T20:38:28.321Z,6.27
2017-09-03T20:40:57.602Z,5.90
2017-09-03T20:43:26.784Z,6.80
2017-09-03T20:45:56.266Z,6.20
2017-09-03T20:48:25.957Z,6.73
2017-09-03T20:50:55.243Z,6.77
2017-09-03T20:53:24.708Z,5.90
2017-09-03T20:55:53.894Z,7.27
2017-09-03T20:58:23.213Z,6.50
2017-09-03T21:00:52.534Z,7.10
2017-09-03T21:03:21.701Z,6.37
2017-09-03T21:05:50.854Z,6.43
2017-09-03T21:08:20.337Z,7.17
2017-09-03T21:10:49.534Z,6.93
2017-09-03T21:13:18.730Z,7.30
2017-09-03T21:15:48.148Z,7.37
2017-09-03T21:18:17.274Z,7.40
2017-09-03T21:20:46.410Z,7.80
2017-09-03T21:23:15.837Z,9.20
2017-09-03T21:25:44.946Z,8.67
2017-09-03T21:28:14.121Z,8.53
2017-09-03T21:30:43.432Z,8.10
2017-09-03T21:33:12.748Z,8.13
2017-09-03T21:35:41.940Z,7.60
2017-09-03T21:38:11.397Z,8.30
2017-09-03T21:40:41.088Z,8.27
2017-09-03T21:43:10.284Z,6.93
2017-09-03T21:45:39.437Z,8.20
2017-09-03T21:48:08.613Z,8.10
2017-09-03T21:50:38.771Z,8.17
2017-09-03T21:53:08.002Z,6.40
2017-09-03T21:55:37.179Z,6.40
2017-09-03T21:58:06.443Z,5.40
2017-09-03T22:00:35.752Z,6.20
2017-09-03T22:03:04.977Z,6.50
2017-09-03T22:05:34.178Z,6.30
2017-09-03T22:08:03.364Z,7.10
2017-09-03T22:10:32.517Z,6.43
2017-09-03T22:13:01.728Z,6.80
2017-09-03T22:15:31.129Z,7.17
2017-09-03T22:18:00.401Z,6.93
2017-09-03T22:20:29.524Z,7.00
2017-09-03T22:22:58.892Z,7.50
2017-09-03T22:25:28.092Z,7.67
2017-09-03T22:27:57.422Z,6.43
2017-09-03T22:30:26.825Z,6.80
2017-09-03T22:32:56.936Z,7.03
2017-09-03T22:35:26.162Z,6.77
2017-09-03T22:37:55.797Z,6.97
2017-09-03T22:40:24.920Z,6.70
2017-09-03T22:42:54.078Z,8.10
2017-09-03T22:45:24.583Z,7.77
2017-09-03T22:47:53.897Z,7.30
2017-09-03T22:50:23.039Z,6.90
2017-09-03T22:52:52.955Z,7.40
2017-09-03T22:55:22.046Z,6.70
2017-09-03T22:57:51.991Z,6.85
2017-09-03T23:00:21.526Z,6.27
2017-09-03T23:02:50.818Z,13.63
2017-09-03T23:05:19.992Z,7.87
2017-09-03T23:07:49.507Z,8.00
2017-09-03T23:10:18.645Z,7.80
2017-09-03T23:12:47.817Z,7.35
2017-09-03T23:15:17.002Z,6.72
2017-09-03T23:17:46.106Z,7.75
2017-09-03T23:20:15.226Z,7.45
2017-09-03T23:22:44.681Z,7.65
2017-09-03T23:25:13.798Z,7.00
2017-09-03T23:27:43.693Z,6.70
2017-09-03T23:30:12.971Z,6.93
2017-09-03T23:32:42.109Z,5.30
2017-09-03T23:35:12.100Z,5.50
2017-09-03T23:37:41.261Z,6.37
2017-09-03T23:40:10.398Z,6.65
2017-09-03T23:42:39.565Z,6.40
2017-09-03T23:45:08.806Z,7.43
2017-09-03T23:47:37.944Z,6.62
2017-09-03T23:50:07.193Z,6.75
2017-09-03T23:52:36.566Z,6.85
2017-09-03T23:55:05.690Z,6.85
2017-09-03T23:57:34.905Z,6.40
